Time;durP1;ratioP1;P1;durP2;ratioP2;P2;SDS_P1;SDS_P2;PMS_P1;PMS_P2;Temp;Humidity;BMP_temperature;BMP_pressure;BME280_temperature;BME280_humidity;BME280_pressure;Samples;Min_cycle;Max_cycle;Signal;HPM_P1;HPM_P2
2021/12/20 00:01:42;;;;;;;34.38;14.13;;;;;;;;;;4993168;28;20053;-64
2021/12/20 00:04:08;;;;;;;28.10;14.38;;;;;;;;;;4992530;28;20026;-64
2021/12/20 00:06:35;;;;;;;28.88;16.08;;;;;;;;;;4992769;28;20121;-64
2021/12/20 00:09:01;;;;;;;28.98;14.63;;;;;;;;;;4992949;28;20037;-64
2021/12/20 00:11:27;;;;;;;34.20;15.27;;;;;;;;;;4992838;28;20030;-64
2021/12/20 00:13:53;;;;;;;32.40;15.65;;;;;;;;;;4992911;28;20046;-64
2021/12/20 00:16:19;;;;;;;33.30;15.60;;;;;;;;;;4992964;28;20066;-64
2021/12/20 00:18:45;;;;;;;30.92;15.20;;;;;;;;;;4993507;28;20030;-64
2021/12/20 00:21:11;;;;;;;33.15;15.90;;;;;;;;;;4996018;28;20416;-64
2021/12/20 00:23:38;;;;;;;29.75;16.20;;;;;;;;;;4996438;28;20038;-64
2021/12/20 00:26:04;;;;;;;32.55;16.73;;;;;;;;;;4996222;28;20474;-64
2021/12/20 00:28:30;;;;;;;34.50;16.35;;;;;;;;;;4996262;28;20041;-64
2021/12/20 00:30:56;;;;;;;29.33;14.93;;;;;;;;;;4996399;28;20039;-64
2021/12/20 00:33:22;;;;;;;26.05;13.65;;;;;;;;;;4989923;28;20086;-64
2021/12/20 00:35:49;;;;;;;28.67;14.77;;;;;;;;;;4976536;28;20109;-64
2021/12/20 00:41:00;;;;;;;30.17;15.07;;;;;;;;;;4976943;28;20034;-64
2021/12/20 00:43:27;;;;;;;30.48;15.65;;;;;;;;;;5000485;28;20033;-64
2021/12/20 00:45:53;;;;;;;29.92;15.50;;;;;;;;;;4996568;28;20022;-64
2021/12/20 00:48:19;;;;;;;32.83;15.55;;;;;;;;;;4996130;28;20030;-64
2021/12/20 00:50:45;;;;;;;34.88;15.32;;;;;;;;;;4995930;28;20031;-64
2021/12/20 00:53:12;;;;;;;32.88;16.13;;;;;;;;;;4996084;28;20030;-64
2021/12/20 00:55:38;;;;;;;31.33;15.85;;;;;;;;;;4996400;28;20055;-64
2021/12/20 00:58:05;;;;;;;35.90;16.10;;;;;;;;;;4995906;28;20088;-64
2021/12/20 01:00:36;;;;;;;35.47;17.20;;;;;;;;;;4996119;28;20034;-64
2021/12/20 01:03:04;;;;;;;31.45;15.38;;;;;;;;;;4996185;28;20096;-64
2021/12/20 01:05:30;;;;;;;30.80;14.63;;;;;;;;;;4995607;28;20014;-64
2021/12/20 01:07:59;;;;;;;32.70;16.42;;;;;;;;;;4996086;28;20119;-64
2021/12/20 01:10:28;;;;;;;32.55;16.02;;;;;;;;;;5010895;28;20402;-64
2021/12/20 01:12:55;;;;;;;32.90;15.70;;;;;;;;;;4995860;28;20065;-64
2021/12/20 01:15:23;;;;;;;33.55;15.70;;;;;;;;;;4995877;28;20512;-64
2021/12/20 01:17:49;;;;;;;29.17;15.10;;;;;;;;;;4995884;28;20453;-64
2021/12/20 01:20:16;;;;;;;31.83;16.30;;;;;;;;;;4995149;28;20031;-64
2021/12/20 01:22:42;;;;;;;31.65;14.45;;;;;;;;;;4995952;28;20025;-64
2021/12/20 01:25:09;;;;;;;33.60;16.10;;;;;;;;;;4995658;28;20479;-64
2021/12/20 01:27:35;;;;;;;34.08;17.33;;;;;;;;;;4995559;28;20038;-64
2021/12/20 01:30:01;;;;;;;33.97;16.10;;;;;;;;;;4995181;28;20034;-64
2021/12/20 01:32:27;;;;;;;35.05;15.90;;;;;;;;;;4995297;28;20034;-64
2021/12/20 01:34:53;;;;;;;31.50;14.85;;;;;;;;;;4994830;28;20113;-64
2021/12/20 01:37:19;;;;;;;30.83;16.35;;;;;;;;;;4995053;28;20125;-64
2021/12/20 01:39:46;;;;;;;30.83;15.20;;;;;;;;;;4995403;28;20485;-64
2021/12/20 01:42:16;;;;;;;34.22;16.60;;;;;;;;;;4995379;28;20097;-64
2021/12/20 01:44:42;;;;;;;33.08;16.17;;;;;;;;;;4995378;28;20044;-64
2021/12/20 01:47:09;;;;;;;32.22;15.02;;;;;;;;;;4994901;28;20093;-64
2021/12/20 01:49:43;;;;;;;35.45;14.63;;;;;;;;;;4995168;28;20038;-64
2021/12/20 01:52:14;;;;;;;32.50;14.52;;;;;;;;;;4995012;28;20049;-64
2021/12/20 01:54:40;;;;;;;32.42;15.55;;;;;;;;;;4995307;28;20081;-64
2021/12/20 01:57:07;;;;;;;29.73;15.85;;;;;;;;;;4994986;28;20460;-64
2021/12/20 01:59:33;;;;;;;37.45;16.85;;;;;;;;;;4995263;28;20570;-64
2021/12/20 02:01:59;;;;;;;32.60;17.42;;;;;;;;;;4994840;28;20027;-64
2021/12/20 02:04:27;;;;;;;30.58;15.40;;;;;;;;;;4994964;28;20030;-64
2021/12/20 02:06:53;;;;;;;32.13;15.50;;;;;;;;;;4994840;28;20193;-64
2021/12/20 02:09:20;;;;;;;32.50;15.18;;;;;;;;;;4994518;28;20034;-64
2021/12/20 02:11:48;;;;;;;30.88;16.58;;;;;;;;;;4994968;28;20623;-64
2021/12/20 02:14:14;;;;;;;28.38;14.23;;;;;;;;;;4994788;28;20033;-64
2021/12/20 02:16:41;;;;;;;31.80;15.40;;;;;;;;;;4994412;28;20022;-64
2021/12/20 02:19:12;;;;;;;28.88;14.77;;;;;;;;;;5002555;28;20458;-64
2021/12/20 02:21:38;;;;;;;31.25;15.27;;;;;;;;;;5014096;28;20029;-64
2021/12/20 02:24:05;;;;;;;27.23;14.45;;;;;;;;;;4994396;28;20022;-64
2021/12/20 02:26:31;;;;;;;32.53;15.18;;;;;;;;;;4994901;28;20034;-64
2021/12/20 02:29:03;;;;;;;27.88;14.13;;;;;;;;;;4994164;28;20499;-64
2021/12/20 02:39:44;;;;;;;29.05;15.55;;;;;;;;;;4994244;28;20073;-64
2021/12/20 02:42:14;;;;;;;27.95;14.40;;;;;;;;;;4992925;28;20030;-64
2021/12/20 02:47:43;;;;;;;29.33;14.00;;;;;;;;;;4993451;28;20408;-64
2021/12/20 02:50:09;;;;;;;29.27;14.23;;;;;;;;;;4993543;28;20352;-64
2021/12/20 02:52:35;;;;;;;31.00;14.60;;;;;;;;;;4993867;28;20459;-64
2021/12/20 02:55:02;;;;;;;31.83;14.95;;;;;;;;;;4993897;28;20030;-64
2021/12/20 02:57:28;;;;;;;26.35;13.23;;;;;;;;;;4992229;28;20113;-64
2021/12/20 02:59:54;;;;;;;27.38;14.20;;;;;;;;;;4993829;28;20467;-64
2021/12/20 03:02:22;;;;;;;32.75;12.88;;;;;;;;;;4993757;28;20022;-64
2021/12/20 03:04:49;;;;;;;26.83;14.05;;;;;;;;;;4994014;28;20356;-64
2021/12/20 03:07:22;;;;;;;33.50;16.10;;;;;;;;;;4993583;28;20038;-64
2021/12/20 03:09:53;;;;;;;27.65;15.60;;;;;;;;;;4993375;28;20383;-64
2021/12/20 03:12:22;;;;;;;27.23;14.00;;;;;;;;;;4993567;28;20374;-64
2021/12/20 03:14:50;;;;;;;29.92;14.65;;;;;;;;;;4992979;28;20050;-64
2021/12/20 03:17:17;;;;;;;28.48;13.77;;;;;;;;;;4992982;28;20049;-64
2021/12/20 03:19:43;;;;;;;35.30;15.52;;;;;;;;;;4997847;28;20035;-64
2021/12/20 03:22:10;;;;;;;32.55;15.35;;;;;;;;;;4993744;28;20474;-64
2021/12/20 03:24:36;;;;;;;32.83;15.75;;;;;;;;;;4993041;28;20034;-64
2021/12/20 03:27:03;;;;;;;30.10;15.10;;;;;;;;;;4993566;28;20027;-64
2021/12/20 03:29:29;;;;;;;29.23;15.02;;;;;;;;;;4992900;28;20122;-64
2021/12/20 03:31:55;;;;;;;30.77;15.07;;;;;;;;;;4993478;28;20066;-64
2021/12/20 03:34:22;;;;;;;27.10;15.85;;;;;;;;;;4993174;28;20073;-64
2021/12/20 03:36:48;;;;;;;30.05;15.18;;;;;;;;;;4993222;28;20118;-64
2021/12/20 03:39:14;;;;;;;27.27;14.40;;;;;;;;;;4993298;28;20031;-64
2021/12/20 03:41:41;;;;;;;32.35;16.23;;;;;;;;;;5008518;28;20399;-64
2021/12/20 03:44:07;;;;;;;27.55;14.07;;;;;;;;;;4993158;28;20030;-64
2021/12/20 03:46:34;;;;;;;28.80;15.35;;;;;;;;;;4993138;28;20033;-64
2021/12/20 03:49:00;;;;;;;32.00;15.40;;;;;;;;;;4993272;28;20033;-64
2021/12/20 03:51:26;;;;;;;31.10;14.48;;;;;;;;;;4992951;28;20038;-64
2021/12/20 03:53:52;;;;;;;32.05;14.40;;;;;;;;;;4994770;28;20026;-64
2021/12/20 03:56:18;;;;;;;33.58;14.35;;;;;;;;;;4997359;28;20117;-64
2021/12/20 03:58:44;;;;;;;27.58;14.68;;;;;;;;;;4997189;28;20042;-64
2021/12/20 04:01:12;;;;;;;31.27;14.38;;;;;;;;;;4997584;28;20029;-64
2021/12/20 04:03:38;;;;;;;29.35;14.60;;;;;;;;;;4996951;28;20030;-64
2021/12/20 04:06:05;;;;;;;32.97;15.13;;;;;;;;;;4996956;28;20065;-64
2021/12/20 04:08:31;;;;;;;27.10;14.20;;;;;;;;;;4997118;28;20049;-64
2021/12/20 04:10:58;;;;;;;32.42;16.45;;;;;;;;;;4996982;28;20018;-64
2021/12/20 04:13:25;;;;;;;31.60;15.07;;;;;;;;;;4996650;28;20058;-64
2021/12/20 04:15:51;;;;;;;29.08;14.65;;;;;;;;;;4997386;28;20034;-64
2021/12/20 04:18:17;;;;;;;33.90;16.10;;;;;;;;;;4996548;28;20022;-64
2021/12/20 04:20:43;;;;;;;36.40;16.00;;;;;;;;;;5016541;28;20022;-64
2021/12/20 04:23:09;;;;;;;33.65;17.48;;;;;;;;;;5016633;28;20022;-64
2021/12/20 04:25:36;;;;;;;37.33;18.08;;;;;;;;;;5004257;28;20489;-64
2021/12/20 04:28:02;;;;;;;36.85;18.17;;;;;;;;;;4996650;28;20067;-64
2021/12/20 04:30:30;;;;;;;37.30;18.63;;;;;;;;;;4996620;28;20022;-64
2021/12/20 04:32:56;;;;;;;36.10;17.90;;;;;;;;;;4997000;28;20041;-64
2021/12/20 04:35:23;;;;;;;38.65;18.45;;;;;;;;;;4996350;28;20062;-64
2021/12/20 04:37:50;;;;;;;38.13;18.33;;;;;;;;;;4996476;28;20041;-64
2021/12/20 04:40:21;;;;;;;40.50;17.70;;;;;;;;;;4996128;28;20097;-64
2021/12/20 04:42:49;;;;;;;41.88;17.95;;;;;;;;;;4996335;28;20493;-64
2021/12/20 04:45:15;;;;;;;32.08;17.08;;;;;;;;;;4996615;28;20037;-64
2021/12/20 04:47:41;;;;;;;37.72;17.45;;;;;;;;;;4996556;28;20038;-64
2021/12/20 04:50:08;;;;;;;35.20;17.25;;;;;;;;;;4996306;28;20022;-64
2021/12/20 04:52:34;;;;;;;33.15;16.80;;;;;;;;;;4996253;28;20081;-64
2021/12/20 04:55:00;;;;;;;33.35;17.63;;;;;;;;;;4996168;28;20514;-64
2021/12/20 04:57:26;;;;;;;34.40;16.95;;;;;;;;;;4995648;28;20042;-64
2021/12/20 04:59:52;;;;;;;35.53;17.75;;;;;;;;;;4996451;28;20084;-64
2021/12/20 05:02:19;;;;;;;34.92;17.48;;;;;;;;;;4996198;28;20073;-64
2021/12/20 05:04:45;;;;;;;35.15;18.48;;;;;;;;;;4995552;28;20030;-64
2021/12/20 05:07:11;;;;;;;30.70;16.50;;;;;;;;;;4995523;28;20065;-64
2021/12/20 05:09:39;;;;;;;34.55;17.58;;;;;;;;;;4995950;28;20080;-64
2021/12/20 05:12:13;;;;;;;32.00;16.17;;;;;;;;;;4995663;28;20491;-64
2021/12/20 05:14:40;;;;;;;32.88;16.20;;;;;;;;;;4996001;28;20034;-64
2021/12/20 05:17:07;;;;;;;35.72;16.48;;;;;;;;;;4996199;28;20724;-64
2021/12/20 05:19:33;;;;;;;35.25;17.55;;;;;;;;;;4995441;28;20038;-64
2021/12/20 05:21:59;;;;;;;28.80;15.18;;;;;;;;;;4995855;28;20061;-64
2021/12/20 05:24:26;;;;;;;31.27;16.20;;;;;;;;;;4995766;28;20022;-64
2021/12/20 05:26:52;;;;;;;33.20;15.55;;;;;;;;;;4995405;28;20029;-64
2021/12/20 05:29:18;;;;;;;34.33;15.75;;;;;;;;;;4995668;28;20026;-64
2021/12/20 05:31:44;;;;;;;34.40;16.00;;;;;;;;;;4995697;28;20109;-64
2021/12/20 05:34:10;;;;;;;30.90;16.58;;;;;;;;;;4984266;28;20027;-64
2021/12/20 05:36:36;;;;;;;35.63;16.90;;;;;;;;;;4976008;28;20030;-64
2021/12/20 05:39:03;;;;;;;32.90;17.92;;;;;;;;;;4975877;28;20061;-64
2021/12/20 05:41:30;;;;;;;36.95;18.15;;;;;;;;;;5009384;28;20069;-64
2021/12/20 05:43:56;;;;;;;33.08;16.52;;;;;;;;;;4995598;28;20118;-64
2021/12/20 05:46:22;;;;;;;33.58;17.38;;;;;;;;;;4995335;28;20023;-64
2021/12/20 05:48:48;;;;;;;37.95;18.00;;;;;;;;;;4995171;28;20022;-64
2021/12/20 05:51:14;;;;;;;35.25;18.60;;;;;;;;;;4995795;28;20490;-64
2021/12/20 05:53:40;;;;;;;37.38;18.45;;;;;;;;;;4994787;28;20038;-64
2021/12/20 05:56:06;;;;;;;39.65;18.02;;;;;;;;;;4995509;28;20117;-64
2021/12/20 05:58:32;;;;;;;37.88;18.92;;;;;;;;;;4995012;28;20092;-64
2021/12/20 06:00:58;;;;;;;36.17;17.83;;;;;;;;;;4995176;28;20041;-64
2021/12/20 06:03:24;;;;;;;34.05;17.40;;;;;;;;;;4995018;28;20033;-64
2021/12/20 06:05:51;;;;;;;37.47;17.60;;;;;;;;;;4994922;28;20109;-64
2021/12/20 06:08:17;;;;;;;35.42;18.77;;;;;;;;;;4994906;28;20034;-64
2021/12/20 06:10:43;;;;;;;40.03;19.10;;;;;;;;;;4993596;28;20030;-64
2021/12/20 06:13:09;;;;;;;35.55;17.77;;;;;;;;;;4994886;28;20046;-64
2021/12/20 06:15:35;;;;;;;38.58;18.02;;;;;;;;;;4993859;28;20470;-64
2021/12/20 06:18:02;;;;;;;32.50;15.38;;;;;;;;;;4994624;28;20037;-64
2021/12/20 06:20:28;;;;;;;33.38;15.73;;;;;;;;;;4993830;28;20050;-64
2021/12/20 06:22:54;;;;;;;32.97;15.40;;;;;;;;;;4993349;28;20037;-64
2021/12/20 06:25:20;;;;;;;37.17;16.27;;;;;;;;;;4991854;28;20463;-64
2021/12/20 06:27:49;;;;;;;38.42;16.23;;;;;;;;;;4989007;28;20077;-64
2021/12/20 06:30:15;;;;;;;34.25;15.98;;;;;;;;;;4992805;28;20085;-64
2021/12/20 06:32:43;;;;;;;38.85;16.55;;;;;;;;;;4992220;28;20049;-63
2021/12/20 06:35:10;;;;;;;35.88;15.95;;;;;;;;;;4992376;28;20077;-63
2021/12/20 06:37:36;;;;;;;36.35;14.65;;;;;;;;;;4992681;28;20496;-63
2021/12/20 06:40:04;;;;;;;35.17;15.48;;;;;;;;;;4991463;28;20034;-63
2021/12/20 06:42:30;;;;;;;37.65;17.83;;;;;;;;;;4994063;28;20097;-64
2021/12/20 06:44:56;;;;;;;39.17;16.77;;;;;;;;;;4997486;28;20030;-64
2021/12/20 06:47:23;;;;;;;36.85;16.17;;;;;;;;;;4999661;28;20037;-64
2021/12/20 06:49:49;;;;;;;34.30;16.10;;;;;;;;;;4995932;28;20502;-64
2021/12/20 06:52:15;;;;;;;37.00;16.75;;;;;;;;;;4991367;28;20402;-64
2021/12/20 06:54:41;;;;;;;38.17;17.60;;;;;;;;;;4990889;28;20038;-63
2021/12/20 06:57:07;;;;;;;35.30;17.45;;;;;;;;;;4991649;28;20030;-64
2021/12/20 06:59:33;;;;;;;33.63;15.40;;;;;;;;;;4993520;28;20049;-64
2021/12/20 07:01:59;;;;;;;40.65;16.90;;;;;;;;;;4993389;28;20442;-64
2021/12/20 07:04:25;;;;;;;34.20;16.27;;;;;;;;;;4993792;28;20371;-64
2021/12/20 07:06:53;;;;;;;36.75;16.63;;;;;;;;;;4989846;28;20080;-64
2021/12/20 07:09:19;;;;;;;39.17;17.92;;;;;;;;;;4992811;28;20437;-64
2021/12/20 07:11:45;;;;;;;37.20;17.90;;;;;;;;;;4992728;28;20109;-64
2021/12/20 07:14:12;;;;;;;36.28;15.73;;;;;;;;;;4993037;28;20399;-64
2021/12/20 07:16:40;;;;;;;33.45;16.08;;;;;;;;;;4992607;28;20030;-64
2021/12/20 07:19:06;;;;;;;39.15;16.95;;;;;;;;;;4991360;28;20806;-64
2021/12/20 07:21:32;;;;;;;38.45;18.50;;;;;;;;;;4992322;28;20037;-64
2021/12/20 07:23:58;;;;;;;35.78;17.35;;;;;;;;;;4992317;28;20096;-64
2021/12/20 07:26:25;;;;;;;39.65;17.00;;;;;;;;;;4993275;28;20029;-64
2021/12/20 07:28:51;;;;;;;37.80;16.90;;;;;;;;;;4990773;28;20034;-64
2021/12/20 07:31:17;;;;;;;37.38;17.67;;;;;;;;;;4991369;28;20475;-64
2021/12/20 07:33:44;;;;;;;38.42;18.02;;;;;;;;;;4995440;28;20150;-64
2021/12/20 07:36:14;;;;;;;38.80;16.05;;;;;;;;;;4991041;28;20141;-64
2021/12/20 07:38:40;;;;;;;42.25;16.95;;;;;;;;;;4992691;28;20038;-65
2021/12/20 07:41:06;;;;;;;34.97;16.55;;;;;;;;;;4991505;28;20031;-65
2021/12/20 07:43:32;;;;;;;38.45;16.27;;;;;;;;;;4991819;28;20030;-65
2021/12/20 07:45:59;;;;;;;39.05;16.65;;;;;;;;;;4990425;28;20030;-65
2021/12/20 07:48:25;;;;;;;35.72;18.15;;;;;;;;;;4991933;28;20117;-65
2021/12/20 07:50:51;;;;;;;37.63;17.40;;;;;;;;;;4992069;28;20456;-65
2021/12/20 07:53:18;;;;;;;37.70;17.40;;;;;;;;;;4992669;28;20541;-65
2021/12/20 07:55:44;;;;;;;39.60;18.45;;;;;;;;;;4991775;28;20110;-65
2021/12/20 07:58:10;;;;;;;41.05;17.08;;;;;;;;;;4997502;28;20038;-65
2021/12/20 08:00:36;;;;;;;34.28;15.15;;;;;;;;;;4999606;28;20034;-65
2021/12/20 08:03:02;;;;;;;37.88;15.98;;;;;;;;;;4995009;28;20355;-65
2021/12/20 08:05:29;;;;;;;32.58;15.18;;;;;;;;;;4994829;28;20451;-65
2021/12/20 08:07:56;;;;;;;30.05;13.55;;;;;;;;;;4995917;28;20540;-65
2021/12/20 08:10:23;;;;;;;33.25;13.88;;;;;;;;;;4989204;28;20081;-65
2021/12/20 08:12:49;;;;;;;30.40;14.18;;;;;;;;;;4997579;28;20029;-65
2021/12/20 08:15:16;;;;;;;30.67;14.35;;;;;;;;;;4989874;28;20034;-65
2021/12/20 08:17:42;;;;;;;28.35;12.02;;;;;;;;;;4992896;28;20088;-65
2021/12/20 08:20:09;;;;;;;29.00;13.50;;;;;;;;;;4987666;28;20502;-65
2021/12/20 08:22:36;;;;;;;29.98;13.50;;;;;;;;;;4990281;28;20027;-65
2021/12/20 08:25:02;;;;;;;28.55;13.75;;;;;;;;;;5007948;28;20026;-65
2021/12/20 08:27:28;;;;;;;29.60;13.88;;;;;;;;;;4996222;28;20034;-65
2021/12/20 08:29:54;;;;;;;29.52;13.80;;;;;;;;;;4993609;28;20045;-65
2021/12/20 08:32:20;;;;;;;33.42;14.65;;;;;;;;;;5000556;28;20049;-65
2021/12/20 08:34:46;;;;;;;31.25;14.88;;;;;;;;;;4989352;28;20523;-65
2021/12/20 08:37:12;;;;;;;32.42;13.80;;;;;;;;;;4989339;28;20692;-65
2021/12/20 08:39:38;;;;;;;28.25;12.98;;;;;;;;;;4997625;28;20064;-65
2021/12/20 08:42:05;;;;;;;33.65;15.32;;;;;;;;;;4993476;28;20018;-66
2021/12/20 08:44:32;;;;;;;29.52;14.27;;;;;;;;;;4993322;28;20142;-66
2021/12/20 08:46:58;;;;;;;31.90;13.98;;;;;;;;;;4995223;28;20051;-66
2021/12/20 08:49:25;;;;;;;28.85;14.30;;;;;;;;;;4993952;28;20030;-66
2021/12/20 08:51:52;;;;;;;30.65;14.60;;;;;;;;;;4995088;28;20364;-66
2021/12/20 08:54:19;;;;;;;32.45;13.45;;;;;;;;;;4993748;28;20509;-67
2021/12/20 08:56:45;;;;;;;30.90;13.73;;;;;;;;;;4994527;28;20068;-67
2021/12/20 08:59:11;;;;;;;33.50;13.70;;;;;;;;;;4993538;28;20030;-67
2021/12/20 09:01:37;;;;;;;28.85;13.30;;;;;;;;;;4992906;28;20037;-67
2021/12/20 09:04:05;;;;;;;32.42;14.57;;;;;;;;;;4993189;28;20061;-66
2021/12/20 09:06:32;;;;;;;28.08;13.85;;;;;;;;;;4995972;28;20038;-66
2021/12/20 09:08:58;;;;;;;34.53;13.52;;;;;;;;;;4994655;28;20439;-67
2021/12/20 09:11:26;;;;;;;32.33;14.63;;;;;;;;;;4989090;28;20030;-67
2021/12/20 09:13:52;;;;;;;31.40;14.02;;;;;;;;;;4992656;28;20846;-67
2021/12/20 09:16:18;;;;;;;32.17;12.98;;;;;;;;;;4991502;28;20097;-67
2021/12/20 09:18:45;;;;;;;31.75;14.75;;;;;;;;;;4993539;28;20062;-67
2021/12/20 09:21:11;;;;;;;30.00;13.93;;;;;;;;;;4993257;28;20061;-67
2021/12/20 09:23:40;;;;;;;30.35;13.55;;;;;;;;;;4992924;28;20034;-67
2021/12/20 09:26:06;;;;;;;31.95;14.30;;;;;;;;;;4994457;28;20162;-67
2021/12/20 09:28:32;;;;;;;33.45;15.20;;;;;;;;;;4991810;28;20034;-67
2021/12/20 09:30:59;;;;;;;34.22;15.32;;;;;;;;;;4992645;28;20121;-67
2021/12/20 09:33:25;;;;;;;31.33;14.23;;;;;;;;;;4991748;28;20037;-67
2021/12/20 09:35:53;;;;;;;29.00;13.52;;;;;;;;;;4992041;28;20316;-67
2021/12/20 09:38:20;;;;;;;33.65;15.18;;;;;;;;;;4991405;28;20364;-67
2021/12/20 09:43:32;;;;;;;33.35;13.57;;;;;;;;;;4992355;28;20033;-67
2021/12/20 09:45:58;;;;;;;33.83;14.48;;;;;;;;;;4992064;28;20026;-67
2021/12/20 09:48:25;;;;;;;30.10;14.02;;;;;;;;;;4992072;28;20062;-67
2021/12/20 09:50:51;;;;;;;28.85;12.90;;;;;;;;;;4990856;28;20057;-67
2021/12/20 09:53:17;;;;;;;29.67;13.95;;;;;;;;;;4990145;28;20030;-67
2021/12/20 09:55:47;;;;;;;34.80;15.45;;;;;;;;;;4991201;28;20391;-67
2021/12/20 09:58:13;;;;;;;28.23;13.27;;;;;;;;;;4990766;28;20497;-68
2021/12/20 10:00:39;;;;;;;29.35;14.07;;;;;;;;;;4990679;28;20022;-69
2021/12/20 10:03:06;;;;;;;29.60;14.50;;;;;;;;;;4996173;28;20061;-68
2021/12/20 10:05:34;;;;;;;34.40;13.95;;;;;;;;;;4989467;28;20039;-67
2021/12/20 10:08:09;;;;;;;29.08;13.88;;;;;;;;;;4991295;28;20759;-67
2021/12/20 10:10:37;;;;;;;30.38;14.15;;;;;;;;;;4990415;28;20026;-67
2021/12/20 10:13:03;;;;;;;30.30;13.73;;;;;;;;;;4991787;28;20172;-67
2021/12/20 10:15:35;;;;;;;30.60;13.32;;;;;;;;;;4990714;28;20026;-67
2021/12/20 10:18:02;;;;;;;30.13;14.65;;;;;;;;;;4992670;28;20034;-67
2021/12/20 10:20:30;;;;;;;27.92;12.80;;;;;;;;;;4990781;28;20030;-67
2021/12/20 10:23:14;;;;;;;29.13;12.68;;;;;;;;;;4993425;28;20041;-67
2021/12/20 10:25:42;;;;;;;26.40;12.38;;;;;;;;;;4991628;28;20030;-67
2021/12/20 10:28:10;;;;;;;32.65;13.40;;;;;;;;;;4992615;28;20022;-67
2021/12/20 10:30:41;;;;;;;27.40;12.98;;;;;;;;;;4991945;28;20027;-67
2021/12/20 10:33:12;;;;;;;27.40;13.07;;;;;;;;;;4993655;28;20022;-67
2021/12/20 10:35:39;;;;;;;30.20;13.80;;;;;;;;;;4989156;28;20053;-65
2021/12/20 10:38:24;;;;;;;27.67;13.82;;;;;;;;;;4991733;28;20459;-66
2021/12/20 10:40:53;;;;;;;27.08;13.57;;;;;;;;;;4990075;28;20507;-66
2021/12/20 10:43:21;;;;;;;30.48;13.77;;;;;;;;;;4991229;28;20054;-66
2021/12/20 10:45:47;;;;;;;27.85;12.90;;;;;;;;;;4987770;28;20026;-66
2021/12/20 10:48:13;;;;;;;30.20;13.18;;;;;;;;;;4991611;28;21393;-66
2021/12/20 10:50:44;;;;;;;27.50;13.25;;;;;;;;;;4988795;28;20398;-66
2021/12/20 10:53:20;;;;;;;26.80;13.63;;;;;;;;;;4990721;28;20495;-65
2021/12/20 10:55:46;;;;;;;27.35;13.70;;;;;;;;;;4988885;28;20473;-66
2021/12/20 10:58:36;;;;;;;44.33;17.58;;;;;;;;;;4986220;28;20323;-65
2021/12/20 11:04:13;;;;;;;28.40;14.65;;;;;;;;;;4986418;28;20022;-65
2021/12/20 11:09:17;;;;;;;28.45;13.88;;;;;;;;;;4988656;28;20044;-65
2021/12/20 11:11:48;;;;;;;25.60;12.63;;;;;;;;;;4984133;28;20101;-65
2021/12/20 11:14:15;;;;;;;29.83;14.85;;;;;;;;;;4982890;28;20054;-65
2021/12/20 11:16:43;;;;;;;25.58;12.73;;;;;;;;;;4987221;28;20030;-65
2021/12/20 11:19:12;;;;;;;29.13;13.70;;;;;;;;;;4985872;28;20390;-65
2021/12/20 11:21:44;;;;;;;27.10;13.15;;;;;;;;;;4987023;28;20030;-65
2021/12/20 11:24:11;;;;;;;31.50;13.32;;;;;;;;;;4983036;28;20483;-65
2021/12/20 11:26:38;;;;;;;27.77;12.88;;;;;;;;;;4991199;28;20073;-65
2021/12/20 11:29:04;;;;;;;27.23;12.80;;;;;;;;;;4991484;28;20486;-66
2021/12/20 11:31:32;;;;;;;25.38;11.52;;;;;;;;;;4991265;28;20038;-67
2021/12/20 11:34:00;;;;;;;27.23;11.57;;;;;;;;;;4990389;28;20044;-65
2021/12/20 11:36:26;;;;;;;24.70;11.48;;;;;;;;;;4989697;28;20206;-65
2021/12/20 11:38:53;;;;;;;26.35;12.65;;;;;;;;;;4990518;28;20061;-65
2021/12/20 11:41:19;;;;;;;24.30;11.95;;;;;;;;;;4990197;28;20050;-65
2021/12/20 11:43:46;;;;;;;29.15;13.57;;;;;;;;;;4990826;28;20109;-66
2021/12/20 11:46:13;;;;;;;24.65;10.80;;;;;;;;;;4991113;28;20060;-66
2021/12/20 11:48:39;;;;;;;25.92;13.10;;;;;;;;;;4991734;28;20026;-66
2021/12/20 11:51:06;;;;;;;26.00;11.60;;;;;;;;;;4991731;28;20041;-66
2021/12/20 11:53:36;;;;;;;27.77;13.63;;;;;;;;;;4989251;28;20146;-66
2021/12/20 11:56:03;;;;;;;26.25;12.52;;;;;;;;;;4989339;28;20403;-66
2021/12/20 11:58:30;;;;;;;25.23;11.18;;;;;;;;;;4990425;28;20121;-66
2021/12/20 12:01:01;;;;;;;26.92;13.02;;;;;;;;;;4991319;28;20510;-66
2021/12/20 12:03:27;;;;;;;30.08;12.57;;;;;;;;;;4989703;28;20045;-66
2021/12/20 12:05:57;;;;;;;31.88;14.75;;;;;;;;;;4991263;28;20066;-66
2021/12/20 12:08:43;;;;;;;26.48;12.10;;;;;;;;;;4989730;28;20053;-66
2021/12/20 12:11:09;;;;;;;27.48;13.57;;;;;;;;;;4989298;28;20048;-66
2021/12/20 12:18:53;;;;;;;33.80;13.73;;;;;;;;;;4996817;28;20042;-66
2021/12/20 12:21:32;;;;;;;28.00;13.68;;;;;;;;;;4994780;28;20023;-66
2021/12/20 12:23:58;;;;;;;27.55;12.90;;;;;;;;;;4993662;28;20022;-66
2021/12/20 12:26:31;;;;;;;25.00;10.52;;;;;;;;;;4993564;28;20034;-66
2021/12/20 12:28:57;;;;;;;29.02;13.60;;;;;;;;;;4994586;28;20026;-66
2021/12/20 12:31:24;;;;;;;28.33;14.38;;;;;;;;;;4993629;28;20421;-66
2021/12/20 12:34:10;;;;;;;31.13;12.82;;;;;;;;;;4993357;28;20022;-66
2021/12/20 12:36:41;;;;;;;29.38;12.68;;;;;;;;;;4987606;28;20061;-66
2021/12/20 12:39:11;;;;;;;29.08;13.82;;;;;;;;;;4995186;28;20026;-66
2021/12/20 12:41:48;;;;;;;29.15;12.95;;;;;;;;;;4992812;28;20405;-67
2021/12/20 12:44:17;;;;;;;30.58;13.73;;;;;;;;;;4992990;28;20434;-68
2021/12/20 12:46:48;;;;;;;27.85;13.32;;;;;;;;;;4993626;28;20034;-68
2021/12/20 12:49:29;;;;;;;31.70;13.75;;;;;;;;;;4991580;28;20026;-67
2021/12/20 12:52:08;;;;;;;30.35;13.20;;;;;;;;;;4988752;28;20401;-67
2021/12/20 12:54:34;;;;;;;28.80;13.77;;;;;;;;;;4988369;28;20034;-67
2021/12/20 12:57:24;;;;;;;28.95;13.88;;;;;;;;;;4991864;28;20510;-67
2021/12/20 12:59:52;;;;;;;26.83;13.70;;;;;;;;;;4986849;28;20034;-67
2021/12/20 13:02:23;;;;;;;28.13;13.27;;;;;;;;;;4991807;28;20030;-67
2021/12/20 13:04:49;;;;;;;29.40;14.10;;;;;;;;;;4990782;28;20022;-67
2021/12/20 13:07:19;;;;;;;26.95;13.43;;;;;;;;;;4994705;28;20058;-67
2021/12/20 13:09:47;;;;;;;27.38;13.27;;;;;;;;;;4994690;28;20390;-67
2021/12/20 13:12:30;;;;;;;32.30;14.90;;;;;;;;;;4994969;28;20030;-67
2021/12/20 13:15:11;;;;;;;32.35;13.93;;;;;;;;;;4998154;28;20110;-67
2021/12/20 13:17:41;;;;;;;29.27;13.65;;;;;;;;;;4993123;28;20474;-67
2021/12/20 13:21:06;;;;;;;34.00;13.98;;;;;;;;;;4996048;28;20022;-67
2021/12/20 13:23:09;;;;;;;28.00;13.30;;;;;;;;;;4984889;28;20507;-67
2021/12/20 13:25:43;;;;;;;30.52;14.13;;;;;;;;;;4989585;28;20026;-67
2021/12/20 13:28:19;;;;;;;30.40;14.65;;;;;;;;;;4992352;28;20433;-67
2021/12/20 13:30:47;;;;;;;27.83;14.13;;;;;;;;;;4989561;28;20034;-67
2021/12/20 13:33:14;;;;;;;30.08;14.25;;;;;;;;;;4992861;28;20030;-67
2021/12/20 13:35:41;;;;;;;31.15;12.88;;;;;;;;;;4992275;28;20093;-68
2021/12/20 13:38:14;;;;;;;32.33;13.07;;;;;;;;;;4991969;28;20022;-67
2021/12/20 13:40:52;;;;;;;31.63;14.05;;;;;;;;;;4990787;28;20506;-67
2021/12/20 13:43:22;;;;;;;29.67;14.15;;;;;;;;;;4991154;28;20051;-67
2021/12/20 13:46:03;;;;;;;26.50;13.45;;;;;;;;;;4991059;28;20076;-67
2021/12/20 13:48:29;;;;;;;32.15;14.32;;;;;;;;;;4992859;28;20042;-67
2021/12/20 13:50:55;;;;;;;30.25;14.52;;;;;;;;;;4990326;28;20367;-67
2021/12/20 13:53:41;;;;;;;29.80;13.82;;;;;;;;;;4992663;28;20030;-68
2021/12/20 13:56:07;;;;;;;30.48;13.43;;;;;;;;;;4990676;28;20503;-66
2021/12/20 13:58:33;;;;;;;33.75;14.07;;;;;;;;;;4991796;28;20124;-66
2021/12/20 14:01:00;;;;;;;32.50;14.43;;;;;;;;;;4992418;28;20034;-66
2021/12/20 14:03:26;;;;;;;28.52;14.05;;;;;;;;;;4992234;28;20022;-66
2021/12/20 14:05:52;;;;;;;27.45;13.73;;;;;;;;;;4991563;28;20102;-66
2021/12/20 14:08:24;;;;;;;29.10;13.77;;;;;;;;;;4990504;28;20038;-66
2021/12/20 14:10:51;;;;;;;30.38;13.85;;;;;;;;;;4991762;28;20042;-66
2021/12/20 14:13:18;;;;;;;31.75;14.73;;;;;;;;;;4991246;28;20497;-66
2021/12/20 14:15:46;;;;;;;29.17;14.07;;;;;;;;;;4991310;28;20029;-66
2021/12/20 14:18:13;;;;;;;34.03;14.65;;;;;;;;;;4991043;28;21092;-66
2021/12/20 14:20:49;;;;;;;34.80;16.23;;;;;;;;;;4991805;28;20391;-66
2021/12/20 14:23:16;;;;;;;31.98;14.13;;;;;;;;;;4990163;28;20054;-66
2021/12/20 14:25:43;;;;;;;29.75;15.00;;;;;;;;;;4991357;28;20101;-66
2021/12/20 14:28:09;;;;;;;37.42;15.90;;;;;;;;;;4991835;28;20030;-66
2021/12/20 14:30:36;;;;;;;33.53;16.35;;;;;;;;;;4991964;28;20049;-67
2021/12/20 14:33:22;;;;;;;38.30;17.10;;;;;;;;;;4990434;28;20535;-66
2021/12/20 14:35:52;;;;;;;40.58;19.38;;;;;;;;;;4991791;28;20121;-67
2021/12/20 14:38:27;;;;;;;37.10;17.95;;;;;;;;;;4991085;28;20038;-67
2021/12/20 14:40:54;;;;;;;36.95;18.25;;;;;;;;;;4990772;28;20125;-67
2021/12/20 14:43:21;;;;;;;35.78;17.30;;;;;;;;;;4988731;28;20101;-67
2021/12/20 14:45:53;;;;;;;34.28;17.58;;;;;;;;;;4991445;28;20030;-67
2021/12/20 14:48:29;;;;;;;31.75;15.02;;;;;;;;;;4991444;28;20034;-67